createdAt,value
2023-05-15T00:01:56.793Z,15.30
2023-05-15T00:06:58.930Z,15.30
2023-05-15T00:12:00.930Z,15.30
2023-05-15T00:17:02.995Z,15.30
2023-05-15T00:22:05.183Z,15.30
2023-05-15T00:27:07.469Z,15.30
2023-05-15T00:32:09.508Z,15.20
2023-05-15T00:37:11.571Z,15.20
2023-05-15T00:42:15.324Z,15.20
2023-05-15T00:47:17.486Z,15.20
2023-05-15T00:52:20.681Z,15.20
2023-05-15T00:57:23.998Z,15.20
2023-05-15T01:02:27.085Z,15.20
2023-05-15T01:07:34.709Z,15.20
2023-05-15T01:12:38.259Z,15.20
2023-05-15T01:17:40.584Z,15.20
2023-05-15T01:23:17.814Z,15.10
2023-05-15T01:28:28.224Z,15.10
2023-05-15T01:33:34.269Z,15.10
2023-05-15T01:38:36.350Z,15.00
2023-05-15T01:43:40.120Z,15.00
2023-05-15T01:48:45.249Z,15.00
2023-05-15T01:53:47.926Z,15.00
2023-05-15T01:58:50.379Z,15.00
2023-05-15T02:03:52.999Z,15.00
2023-05-15T02:08:57.293Z,14.90
2023-05-15T02:14:01.358Z,14.90
2023-05-15T02:19:03.447Z,14.90
2023-05-15T02:24:05.704Z,14.80
2023-05-15T02:29:10.629Z,14.80
2023-05-15T02:34:12.638Z,14.80
2023-05-15T02:39:15.859Z,14.70
2023-05-15T02:44:18.358Z,14.70
2023-05-15T02:49:21.332Z,14.60
2023-05-15T02:54:23.402Z,14.50
2023-05-15T02:59:25.470Z,14.40
2023-05-15T03:04:27.805Z,14.30
2023-05-15T03:09:29.847Z,14.20
2023-05-15T03:14:31.839Z,14.10
2023-05-15T03:19:33.822Z,14.10
2023-05-15T03:24:35.887Z,14.00
2023-05-15T03:29:38.552Z,14.00
2023-05-15T03:34:41.207Z,13.90
2023-05-15T03:39:43.356Z,13.80
2023-05-15T03:44:46.944Z,13.70
2023-05-15T03:49:48.894Z,13.70
2023-05-15T03:54:50.946Z,13.70
2023-05-15T03:59:53.192Z,13.60
2023-05-15T04:04:55.218Z,13.60
2023-05-15T04:09:57.260Z,13.50
2023-05-15T04:14:59.856Z,13.50
2023-05-15T04:20:01.855Z,13.60
2023-05-15T04:25:04.724Z,13.60
2023-05-15T04:30:07.624Z,13.70
2023-05-15T04:35:12.000Z,13.70
2023-05-15T04:40:16.235Z,13.80
2023-05-15T04:45:18.803Z,14.00
2023-05-15T04:50:20.896Z,14.10
2023-05-15T04:55:23.049Z,14.20
2023-05-15T05:00:25.274Z,14.30
2023-05-15T05:05:27.412Z,14.50
2023-05-15T05:10:29.370Z,14.60
2023-05-15T05:15:31.466Z,14.70
2023-05-15T05:20:33.538Z,14.80
2023-05-15T05:25:35.530Z,14.90
2023-05-15T05:30:37.565Z,15.10
2023-05-15T05:35:39.574Z,15.30
2023-05-15T05:40:41.585Z,15.60
2023-05-15T05:45:43.603Z,15.80
2023-05-15T05:50:45.737Z,16.10
2023-05-15T05:55:47.839Z,16.30
2023-05-15T06:00:49.857Z,16.60
2023-05-15T06:05:52.939Z,16.80
2023-05-15T06:10:55.585Z,17.10
2023-05-15T06:15:57.561Z,17.40
2023-05-15T06:21:00.388Z,17.80
2023-05-15T06:26:02.449Z,18.10
2023-05-15T06:31:04.599Z,18.40
2023-05-15T06:36:06.724Z,18.60
2023-05-15T06:41:08.676Z,18.80
2023-05-15T06:46:10.786Z,18.90
2023-05-15T06:51:12.912Z,19.10
2023-05-15T06:56:14.941Z,19.20
2023-05-15T07:01:16.985Z,19.30
2023-05-15T07:06:18.978Z,19.50
2023-05-15T07:11:20.961Z,19.70
2023-05-15T07:16:22.991Z,19.80
2023-05-15T07:21:24.984Z,19.90
2023-05-15T07:26:34.171Z,20.00
2023-05-15T07:31:41.940Z,20.20
2023-05-15T07:36:44.254Z,20.40
2023-05-15T07:41:47.241Z,20.60
2023-05-15T07:46:49.282Z,20.80
2023-05-15T07:51:51.293Z,21.00
2023-05-15T07:56:54.029Z,21.10
2023-05-15T08:06:58.788Z,21.60
2023-05-15T08:12:21.100Z,21.60
2023-05-15T08:17:24.580Z,21.70
2023-05-15T08:22:26.567Z,21.80
2023-05-15T08:27:28.576Z,21.90
2023-05-15T08:32:30.668Z,22.10
2023-05-15T08:37:33.552Z,22.30
2023-05-15T08:42:37.854Z,22.30
2023-05-15T08:47:41.540Z,22.40
2023-05-15T08:52:47.870Z,22.50
2023-05-15T08:57:50.558Z,22.50
2023-05-15T09:02:53.895Z,22.50
2023-05-15T09:07:56.585Z,22.60
2023-05-15T09:12:59.211Z,22.70
2023-05-15T09:18:01.489Z,22.90
2023-05-15T09:23:04.815Z,23.00
2023-05-15T09:28:26.120Z,23.20
2023-05-15T09:33:29.354Z,23.40
2023-05-15T09:38:35.021Z,23.60
2023-05-15T09:43:38.552Z,23.80
2023-05-15T09:48:40.689Z,23.90
2023-05-15T09:53:42.876Z,24.10
2023-05-15T09:58:54.484Z,24.30
2023-05-15T10:04:00.645Z,24.50
2023-05-15T10:09:03.369Z,24.70
2023-05-15T10:14:06.171Z,25.00
2023-05-15T10:19:10.135Z,25.10
2023-05-15T10:24:12.382Z,25.20
2023-05-15T10:29:15.181Z,25.10
2023-05-15T10:34:18.577Z,25.20
2023-05-15T10:39:20.715Z,25.10
2023-05-15T10:44:23.402Z,25.20
2023-05-15T10:49:25.807Z,25.30
2023-05-15T10:54:28.462Z,25.40
2023-05-15T10:59:34.748Z,25.40
2023-05-15T11:04:37.549Z,25.30
2023-05-15T11:09:40.313Z,25.30
2023-05-15T11:14:43.240Z,25.30
2023-05-15T11:19:51.403Z,25.40
2023-05-15T11:25:04.888Z,25.60
2023-05-15T11:30:06.978Z,26.00
2023-05-15T11:35:32.464Z,26.20
2023-05-15T11:40:43.582Z,26.40
2023-05-15T11:45:46.762Z,26.60
2023-05-15T11:50:49.210Z,26.90
2023-05-15T11:55:52.425Z,27.20
2023-05-15T12:00:54.694Z,27.30
2023-05-15T12:06:00.100Z,27.40
2023-05-15T12:11:02.983Z,27.50
2023-05-15T12:16:05.853Z,27.50
2023-05-15T12:21:10.823Z,27.70
2023-05-15T12:26:13.370Z,27.80
2023-05-15T12:31:17.381Z,27.70
2023-05-15T12:36:22.501Z,27.70
2023-05-15T12:41:28.999Z,28.00
2023-05-15T12:46:31.905Z,28.20
2023-05-15T12:51:34.133Z,28.50
2023-05-15T12:56:36.077Z,28.80
2023-05-15T13:01:42.151Z,29.10
2023-05-15T13:06:47.304Z,29.30
2023-05-15T13:11:50.716Z,29.70
2023-05-15T13:16:53.084Z,30.10
2023-05-15T13:21:55.205Z,30.50
2023-05-15T13:26:57.177Z,30.70
2023-05-15T13:31:59.260Z,30.70
2023-05-15T13:37:01.529Z,30.80
2023-05-15T13:42:03.654Z,31.10
2023-05-15T13:47:05.893Z,31.10
2023-05-15T13:52:08.004Z,31.50
2023-05-15T13:57:10.052Z,31.70
2023-05-15T14:02:12.056Z,31.70
2023-05-15T14:07:14.096Z,31.40
2023-05-15T14:12:16.125Z,31.20
2023-05-15T14:17:21.114Z,31.20
2023-05-15T14:22:24.819Z,31.30
2023-05-15T14:27:27.171Z,31.30
2023-05-15T14:32:29.189Z,31.00
2023-05-15T14:37:31.379Z,31.00
2023-05-15T14:42:33.355Z,30.80
2023-05-15T14:47:35.529Z,30.90
2023-05-15T14:52:37.630Z,30.60
2023-05-15T14:57:39.672Z,30.20
2023-05-15T15:02:45.990Z,29.70
2023-05-15T15:08:07.728Z,29.10
2023-05-15T15:13:11.611Z,28.60
2023-05-15T15:18:13.614Z,28.10
2023-05-15T15:23:15.922Z,27.60
2023-05-15T15:28:17.882Z,27.40
2023-05-15T15:33:19.826Z,28.10
2023-05-15T15:38:21.886Z,28.60
2023-05-15T15:43:23.894Z,29.10
2023-05-15T15:48:26.005Z,29.50
2023-05-15T15:53:28.005Z,29.80
2023-05-15T15:58:30.072Z,29.30
2023-05-15T16:03:32.209Z,28.60
2023-05-15T16:08:34.246Z,27.40
2023-05-15T16:13:36.304Z,26.50
2023-05-15T16:18:38.381Z,25.70
2023-05-15T16:23:41.355Z,24.50
2023-05-15T16:33:46.567Z,23.60
2023-05-15T16:38:48.681Z,23.30
2023-05-15T16:43:50.873Z,23.10
2023-05-15T16:48:52.940Z,22.90
2023-05-15T16:53:56.472Z,22.60
2023-05-15T16:58:58.465Z,22.40
2023-05-15T17:04:00.572Z,22.20
2023-05-15T17:09:02.727Z,22.00
2023-05-15T17:14:04.848Z,21.90
2023-05-15T17:19:06.925Z,21.80
2023-05-15T17:24:09.009Z,21.80
2023-05-15T17:29:11.004Z,21.80
2023-05-15T17:34:13.233Z,21.90
2023-05-15T17:39:15.342Z,22.00
2023-05-15T17:44:17.418Z,22.00
2023-05-15T17:49:19.440Z,22.10
2023-05-15T17:54:21.410Z,22.10
2023-05-15T17:59:23.416Z,22.10
2023-05-15T18:04:25.551Z,22.00
2023-05-15T18:09:27.752Z,21.90
2023-05-15T18:19:32.567Z,21.60
2023-05-15T18:24:34.601Z,21.40
2023-05-15T18:29:36.601Z,21.40
2023-05-15T18:34:38.651Z,21.30
2023-05-15T18:39:42.855Z,21.10
2023-05-15T18:44:44.823Z,21.00
2023-05-15T18:49:46.873Z,20.80
2023-05-15T18:54:48.839Z,20.60
2023-05-15T18:59:50.887Z,20.40
2023-05-15T19:04:53.012Z,20.30
2023-05-15T19:09:55.005Z,20.20
2023-05-15T19:14:57.005Z,20.10
2023-05-15T19:19:58.985Z,20.00
2023-05-15T19:25:01.012Z,19.90
2023-05-15T19:30:03.479Z,19.80
2023-05-15T19:35:05.738Z,19.70
2023-05-15T19:40:08.524Z,19.60
2023-05-15T19:45:10.787Z,19.50
2023-05-15T19:50:12.950Z,19.40
2023-05-15T19:55:15.653Z,19.40
2023-05-15T20:00:20.066Z,19.30
2023-05-15T20:05:22.247Z,19.20
2023-05-15T20:10:24.652Z,19.10
2023-05-15T20:20:32.801Z,19.00
2023-05-15T20:25:39.314Z,18.80
2023-05-15T20:31:29.171Z,18.80
2023-05-15T20:36:34.947Z,18.70
2023-05-15T20:41:37.723Z,18.70
2023-05-15T20:46:40.136Z,18.60
2023-05-15T20:51:44.373Z,18.50
2023-05-15T20:56:46.619Z,18.40
2023-05-15T21:01:49.144Z,18.40
2023-05-15T21:11:54.384Z,18.30
2023-05-15T21:16:56.825Z,18.20
2023-05-15T21:27:01.345Z,18.20
2023-05-15T21:32:03.700Z,18.20
2023-05-15T21:37:05.934Z,18.10
2023-05-15T21:42:08.051Z,18.10
2023-05-15T21:47:10.043Z,18.10
2023-05-15T21:52:12.189Z,18.00
2023-05-15T21:57:14.285Z,18.00
2023-05-15T22:02:16.274Z,17.90
2023-05-15T22:07:18.518Z,17.80
2023-05-15T22:12:21.001Z,17.70
2023-05-15T22:17:23.828Z,17.50
2023-05-15T22:22:25.835Z,17.40
2023-05-15T22:27:28.217Z,17.30
2023-05-15T22:32:30.308Z,17.30
2023-05-15T22:37:32.334Z,17.20
2023-05-15T22:42:34.440Z,17.10
2023-05-15T22:47:36.856Z,17.00
2023-05-15T22:52:38.936Z,17.00
2023-05-15T22:57:40.909Z,16.90
2023-05-15T23:02:44.858Z,16.80
2023-05-15T23:07:47.470Z,16.70
2023-05-15T23:12:49.533Z,16.70
2023-05-15T23:17:51.946Z,16.60
2023-05-15T23:22:54.121Z,16.50
2023-05-15T23:27:56.459Z,16.40
2023-05-15T23:32:58.607Z,16.30
2023-05-15T23:38:00.619Z,16.30
2023-05-15T23:43:02.686Z,16.30
2023-05-15T23:48:04.710Z,16.20
2023-05-15T23:53:07.457Z,16.20
2023-05-15T23:58:09.557Z,16.20
